createdAt,value
2018-07-17T00:00:39.061Z,64.90
2018-07-17T00:03:08.395Z,65.09
2018-07-17T00:05:37.541Z,64.65
2018-07-17T00:08:06.519Z,65.12
2018-07-17T00:10:35.941Z,64.90
2018-07-17T00:13:04.652Z,64.92
2018-07-17T00:15:33.672Z,64.92
2018-07-17T00:18:02.455Z,65.22
2018-07-17T00:20:31.530Z,65.48
2018-07-17T00:23:00.272Z,65.42
2018-07-17T00:25:29.070Z,65.53
2018-07-17T00:27:58.077Z,65.67
2018-07-17T00:30:26.821Z,66.25
2018-07-17T00:32:55.611Z,65.78
2018-07-17T00:35:24.689Z,66.37
2018-07-17T00:37:54.103Z,66.47
2018-07-17T00:40:22.893Z,65.71
2018-07-17T00:42:51.861Z,66.24
2018-07-17T00:45:21.171Z,66.06
2018-07-17T00:47:50.291Z,66.50
2018-07-17T00:50:19.093Z,66.54
2018-07-17T00:52:48.193Z,67.37
2018-07-17T00:55:17.247Z,67.31
2018-07-17T00:57:46.878Z,67.24
2018-07-17T01:00:15.617Z,67.69
2018-07-17T01:02:49.642Z,67.40
2018-07-17T01:05:23.862Z,67.87
2018-07-17T01:07:57.678Z,67.45
2018-07-17T01:10:32.040Z,67.75
2018-07-17T01:13:00.059Z,67.80
2018-07-17T01:15:33.255Z,68.04
2018-07-17T01:18:02.355Z,67.50
2018-07-17T01:20:31.133Z,67.29
2018-07-17T01:23:00.506Z,67.93
2018-07-17T01:25:29.259Z,67.97
2018-07-17T01:27:58.263Z,68.09
2018-07-17T01:30:27.362Z,67.76
2018-07-17T01:32:56.612Z,67.74
2018-07-17T01:35:25.619Z,68.01
2018-07-17T01:37:54.676Z,68.39
2018-07-17T01:40:23.679Z,68.97
2018-07-17T01:42:52.770Z,69.04
2018-07-17T01:45:21.545Z,68.98
2018-07-17T01:47:50.644Z,68.91
2018-07-17T01:50:19.731Z,69.50
2018-07-17T01:52:51.013Z,69.32
2018-07-17T01:55:20.360Z,69.57
2018-07-17T01:57:49.081Z,69.78
2018-07-17T02:00:17.819Z,69.65
2018-07-17T02:02:46.561Z,69.79
2018-07-17T02:05:15.595Z,69.50
2018-07-17T02:07:44.339Z,69.68
2018-07-17T02:10:13.422Z,70.03
2018-07-17T02:12:42.466Z,69.92
2018-07-17T02:15:11.555Z,69.32
2018-07-17T02:17:40.978Z,69.91
2018-07-17T02:20:10.007Z,69.81
2018-07-17T02:22:39.036Z,70.47
2018-07-17T02:25:08.063Z,70.05
2018-07-17T02:27:37.046Z,69.86
2018-07-17T02:30:06.538Z,70.67
2018-07-17T02:32:35.528Z,70.89
2018-07-17T02:35:04.882Z,71.31
2018-07-17T02:37:34.213Z,72.21
2018-07-17T02:40:02.940Z,72.09
2018-07-17T02:42:31.698Z,71.55
2018-07-17T02:45:00.429Z,71.26
2018-07-17T02:47:29.211Z,71.35
2018-07-17T02:49:58.593Z,73.17
2018-07-17T02:52:27.362Z,73.70
2018-07-17T02:54:56.498Z,73.61
2018-07-17T02:57:25.230Z,74.34
2018-07-17T02:59:54.011Z,74.20
2018-07-17T03:02:23.050Z,74.82
2018-07-17T03:04:51.765Z,75.37
2018-07-17T03:07:21.065Z,75.32
2018-07-17T03:09:50.451Z,75.40
2018-07-17T03:12:19.559Z,75.21
2018-07-17T03:14:48.887Z,75.14
2018-07-17T03:17:17.908Z,75.05
2018-07-17T03:19:47.041Z,74.64
2018-07-17T03:22:16.631Z,74.58
2018-07-17T03:24:45.433Z,75.21
2018-07-17T03:27:14.143Z,75.71
2018-07-17T03:29:43.391Z,76.23
2018-07-17T03:32:12.228Z,76.26
2018-07-17T03:34:41.762Z,75.84
2018-07-17T03:37:10.456Z,75.86
2018-07-17T03:39:39.935Z,75.47
2018-07-17T03:42:08.665Z,75.74
2018-07-17T03:44:37.645Z,75.83
2018-07-17T03:47:06.663Z,75.94
2018-07-17T03:49:35.438Z,75.46
2018-07-17T03:52:04.252Z,75.75
2018-07-17T03:54:32.971Z,75.87
2018-07-17T03:57:01.953Z,76.39
2018-07-17T03:59:31.349Z,76.81
2018-07-17T04:02:00.096Z,76.84
2018-07-17T04:04:29.130Z,76.95
2018-07-17T04:06:57.950Z,77.25
2018-07-17T04:09:27.290Z,77.70
2018-07-17T04:11:56.034Z,77.92
2018-07-17T04:14:25.110Z,78.13
2018-07-17T04:16:55.384Z,77.62
2018-07-17T04:19:26.064Z,77.93
2018-07-17T04:21:54.797Z,77.90
2018-07-17T04:24:24.649Z,77.75
2018-07-17T04:26:54.149Z,77.64
2018-07-17T04:29:22.977Z,77.70
2018-07-17T04:31:52.386Z,77.90
2018-07-17T04:34:21.426Z,78.41
2018-07-17T04:36:50.421Z,78.24
2018-07-17T04:39:19.715Z,78.83
2018-07-17T04:41:50.895Z,78.48
2018-07-17T04:44:19.866Z,79.37
2018-07-17T04:46:48.539Z,80.44
2018-07-17T04:49:17.629Z,80.70
2018-07-17T04:51:46.384Z,81.26
2018-07-17T04:54:16.664Z,82.27
2018-07-17T04:56:45.738Z,83.02
2018-07-17T04:59:14.467Z,82.92
2018-07-17T05:01:43.309Z,82.98
2018-07-17T05:04:12.571Z,82.60
2018-07-17T05:06:42.151Z,83.28
2018-07-17T05:09:11.987Z,82.84
2018-07-17T05:11:41.055Z,82.75
2018-07-17T05:14:09.805Z,82.10
2018-07-17T05:16:38.529Z,82.68
2018-07-17T05:19:07.984Z,82.54
2018-07-17T05:21:36.742Z,82.52
2018-07-17T05:24:05.481Z,82.65
2018-07-17T05:26:34.222Z,81.56
2018-07-17T05:29:03.094Z,81.24
2018-07-17T05:31:31.758Z,81.19
2018-07-17T05:34:00.851Z,80.45
2018-07-17T05:36:29.563Z,80.59
2018-07-17T05:38:58.766Z,80.09
2018-07-17T05:41:27.525Z,80.28
2018-07-17T05:43:56.655Z,80.18
2018-07-17T05:46:25.844Z,79.79
2018-07-17T05:48:54.959Z,80.26
2018-07-17T05:51:23.961Z,80.35
2018-07-17T05:53:53.359Z,80.10
2018-07-17T05:56:22.603Z,80.12
2018-07-17T05:58:52.072Z,79.11
2018-07-17T06:01:21.210Z,78.69
2018-07-17T06:03:49.987Z,78.03
2018-07-17T06:06:18.726Z,77.08
2018-07-17T06:08:47.505Z,76.75
2018-07-17T06:11:16.927Z,76.85
2018-07-17T06:13:45.685Z,76.75
2018-07-17T06:16:14.446Z,75.97
2018-07-17T06:18:43.335Z,76.20
2018-07-17T06:21:12.539Z,75.54
2018-07-17T06:23:41.367Z,75.19
2018-07-17T06:26:10.174Z,75.28
2018-07-17T06:28:38.992Z,74.16
2018-07-17T06:31:08.022Z,74.18
2018-07-17T06:33:36.759Z,73.08
2018-07-17T06:36:05.575Z,72.46
2018-07-17T06:38:34.409Z,72.02
2018-07-17T06:41:03.471Z,71.74
2018-07-17T06:43:32.213Z,71.47
2018-07-17T06:46:01.195Z,70.53
2018-07-17T06:48:30.364Z,69.52
2018-07-17T06:50:59.607Z,69.57
2018-07-17T06:53:29.164Z,69.33
2018-07-17T06:55:58.308Z,67.28
2018-07-17T06:58:27.155Z,67.04
2018-07-17T07:00:55.897Z,66.01
2018-07-17T07:03:24.851Z,65.15
2018-07-17T07:05:53.956Z,64.83
2018-07-17T07:08:22.966Z,64.48
2018-07-17T07:10:52.036Z,63.77
2018-07-17T07:13:20.794Z,63.51
2018-07-17T07:15:49.872Z,63.30
2018-07-17T07:18:19.051Z,61.77
2018-07-17T07:20:48.276Z,60.52
2018-07-17T07:23:17.690Z,59.46
2018-07-17T07:25:46.744Z,57.47
2018-07-17T07:28:15.940Z,57.43
2018-07-17T07:30:44.723Z,57.09
2018-07-17T07:33:14.013Z,56.60
2018-07-17T07:35:43.018Z,55.36
2018-07-17T07:38:12.437Z,53.50
2018-07-17T07:40:41.570Z,52.91
2018-07-17T07:43:10.415Z,52.74
2018-07-17T07:45:39.391Z,51.73
2018-07-17T07:48:08.407Z,51.41
2018-07-17T07:50:37.298Z,50.39
2018-07-17T07:53:06.335Z,49.17
2018-07-17T07:55:35.130Z,50.05
2018-07-17T07:58:03.883Z,47.41
2018-07-17T08:00:32.610Z,46.30
2018-07-17T08:03:01.377Z,48.14
2018-07-17T08:05:30.169Z,46.96
2018-07-17T08:07:59.226Z,45.65
2018-07-17T08:10:28.192Z,46.12
2018-07-17T08:12:56.927Z,45.85
2018-07-17T08:15:25.767Z,46.23
2018-07-17T08:17:55.098Z,47.13
2018-07-17T08:20:23.850Z,46.89
2018-07-17T08:22:52.932Z,46.75
2018-07-17T08:25:21.690Z,45.67
2018-07-17T08:27:50.936Z,44.60
2018-07-17T08:30:19.642Z,44.13
2018-07-17T08:32:49.503Z,44.79
2018-07-17T08:35:18.475Z,45.32
2018-07-17T08:37:47.673Z,45.49
2018-07-17T08:40:16.545Z,45.90
2018-07-17T08:42:45.339Z,46.21
2018-07-17T08:45:14.397Z,45.41
2018-07-17T08:47:43.611Z,45.74
2018-07-17T08:50:12.925Z,46.26
2018-07-17T08:52:42.339Z,45.59
2018-07-17T08:55:11.394Z,44.95
2018-07-17T08:57:40.367Z,44.81
2018-07-17T09:00:09.661Z,44.14
2018-07-17T09:02:38.409Z,44.46
2018-07-17T09:05:07.250Z,44.44
2018-07-17T09:07:36.307Z,44.40
2018-07-17T09:10:05.136Z,42.94
2018-07-17T09:12:34.368Z,43.03
2018-07-17T09:15:03.124Z,42.80
2018-07-17T09:17:31.847Z,42.51
2018-07-17T09:20:00.657Z,43.35
2018-07-17T09:22:30.316Z,42.91
2018-07-17T09:24:59.011Z,40.92
2018-07-17T09:27:28.052Z,40.44
2018-07-17T09:29:57.075Z,40.83
2018-07-17T09:32:26.379Z,40.39
2018-07-17T09:34:55.799Z,40.37
2018-07-17T09:37:24.849Z,38.63
2018-07-17T09:39:53.877Z,35.50
2018-07-17T09:42:22.838Z,34.13
2018-07-17T09:44:52.064Z,33.60
2018-07-17T09:47:21.428Z,32.32
2018-07-17T09:49:50.551Z,32.61
2018-07-17T09:52:19.557Z,32.98
2018-07-17T09:54:49.186Z,33.55
2018-07-17T09:57:18.385Z,33.46
2018-07-17T09:59:47.823Z,33.56
2018-07-17T10:02:21.804Z,31.46
2018-07-17T10:04:50.892Z,31.90
2018-07-17T10:07:19.690Z,33.27
2018-07-17T10:09:49.415Z,32.78
2018-07-17T10:12:18.487Z,31.47
2018-07-17T10:14:47.786Z,31.75
2018-07-17T10:17:16.785Z,31.75
2018-07-17T10:19:45.571Z,31.77
2018-07-17T10:22:14.305Z,30.81
2018-07-17T10:24:43.563Z,31.01
2018-07-17T10:27:12.616Z,31.35
2018-07-17T10:29:41.703Z,31.17
2018-07-17T10:32:10.674Z,32.10
2018-07-17T10:34:39.559Z,31.32
2018-07-17T10:37:08.645Z,29.67
2018-07-17T10:39:37.726Z,30.04
2018-07-17T10:42:06.810Z,30.34
2018-07-17T10:44:35.545Z,31.43
2018-07-17T10:47:04.268Z,30.01
2018-07-17T10:49:33.065Z,30.71
2018-07-17T10:52:02.492Z,30.33
2018-07-17T10:54:31.260Z,30.27
2018-07-17T10:57:00.218Z,30.04
2018-07-17T10:59:29.163Z,30.43
2018-07-17T11:01:58.598Z,30.14
2018-07-17T11:04:28.067Z,29.27
2018-07-17T11:06:57.909Z,29.93
2018-07-17T11:09:27.374Z,29.36
2018-07-17T11:11:56.487Z,28.80
2018-07-17T11:14:25.523Z,28.17
2018-07-17T11:16:54.558Z,28.17
2018-07-17T11:19:24.196Z,26.40
2018-07-17T11:21:53.312Z,26.81
2018-07-17T11:24:22.038Z,27.03
2018-07-17T11:26:50.781Z,27.10
2018-07-17T11:29:19.827Z,27.51
2018-07-17T11:31:48.912Z,27.27
2018-07-17T11:34:18.194Z,27.88
2018-07-17T11:36:46.936Z,28.16
2018-07-17T11:39:15.726Z,28.70
2018-07-17T11:41:45.213Z,28.65
2018-07-17T11:44:13.997Z,28.67
2018-07-17T11:46:42.739Z,28.17
2018-07-17T11:49:11.474Z,28.56
2018-07-17T11:51:40.399Z,28.72
2018-07-17T11:54:10.188Z,28.45
2018-07-17T11:56:39.410Z,27.64
2018-07-17T11:59:08.228Z,26.98
2018-07-17T12:01:37.594Z,26.72
2018-07-17T12:04:07.322Z,26.14
2018-07-17T12:06:36.175Z,25.61
2018-07-17T12:09:07.143Z,26.20
2018-07-17T12:11:36.238Z,24.46
2018-07-17T12:14:05.021Z,25.14
2018-07-17T12:16:34.325Z,24.74
2018-07-17T12:19:03.947Z,24.74
2018-07-17T12:21:32.946Z,24.93
2018-07-17T12:24:02.224Z,24.59
2018-07-17T12:26:31.117Z,23.88
2018-07-17T12:29:00.283Z,24.18
2018-07-17T12:31:30.584Z,24.68
2018-07-17T12:33:59.789Z,23.35
2018-07-17T12:36:29.428Z,24.23
2018-07-17T12:38:58.204Z,24.27
2018-07-17T12:41:27.137Z,25.54
2018-07-17T12:43:55.991Z,25.61
2018-07-17T12:46:24.796Z,25.77
2018-07-17T12:48:54.191Z,25.40
2018-07-17T12:51:23.047Z,26.01
2018-07-17T12:53:51.832Z,26.77
2018-07-17T12:56:20.659Z,26.44
2018-07-17T12:58:50.382Z,26.56
2018-07-17T13:01:19.478Z,27.00
2018-07-17T13:03:48.640Z,27.11
2018-07-17T13:06:17.671Z,27.85
2018-07-17T13:08:46.480Z,28.17
2018-07-17T13:11:15.275Z,28.12
2018-07-17T13:13:44.061Z,28.16
2018-07-17T13:16:13.270Z,27.44
2018-07-17T13:18:42.286Z,27.94
2018-07-17T13:21:11.385Z,28.34
2018-07-17T13:23:40.296Z,28.45
2018-07-17T13:26:09.062Z,27.71
2018-07-17T13:28:38.285Z,27.47
2018-07-17T13:31:07.681Z,27.48
2018-07-17T13:33:36.445Z,27.62
2018-07-17T13:36:05.392Z,28.25
2018-07-17T13:38:34.531Z,27.97
2018-07-17T13:41:03.704Z,28.44
2018-07-17T13:43:32.467Z,29.70
2018-07-17T13:46:01.846Z,29.05
2018-07-17T13:48:31.528Z,28.41
2018-07-17T13:51:00.311Z,29.07
2018-07-17T13:53:29.249Z,28.90
2018-07-17T13:55:58.017Z,29.00
2018-07-17T13:58:27.328Z,28.65
2018-07-17T14:00:56.632Z,29.42
2018-07-17T14:03:25.388Z,29.94
2018-07-17T14:05:54.408Z,29.63
2018-07-17T14:08:23.759Z,29.51
2018-07-17T14:10:53.326Z,28.74
2018-07-17T14:13:22.410Z,29.65
2018-07-17T14:15:51.739Z,29.80
2018-07-17T14:18:21.021Z,29.78
2018-07-17T14:20:49.815Z,31.22
2018-07-17T14:23:18.779Z,30.89
2018-07-17T14:25:47.571Z,31.24
2018-07-17T14:28:16.699Z,31.12
2018-07-17T14:30:45.746Z,31.76
2018-07-17T14:33:14.836Z,31.31
2018-07-17T14:35:43.974Z,31.17
2018-07-17T14:38:13.329Z,31.34
2018-07-17T14:40:42.100Z,30.72
2018-07-17T14:43:11.144Z,31.84
2018-07-17T14:45:40.560Z,31.22
2018-07-17T14:48:09.357Z,30.51
2018-07-17T14:50:38.681Z,31.01
2018-07-17T14:53:07.906Z,32.30
2018-07-17T14:55:36.675Z,31.85
2018-07-17T14:58:05.723Z,31.52
2018-07-17T15:00:34.442Z,31.10
2018-07-17T15:03:03.477Z,31.28
2018-07-17T15:05:32.544Z,31.50
2018-07-17T15:08:01.581Z,31.52
2018-07-17T15:10:31.007Z,32.03
2018-07-17T15:13:00.041Z,31.68
2018-07-17T15:15:29.131Z,31.28
2018-07-17T15:17:57.985Z,31.34
2018-07-17T15:20:26.707Z,31.90
2018-07-17T15:22:55.437Z,31.04
2018-07-17T15:25:24.565Z,31.10
2018-07-17T15:27:53.783Z,31.89
2018-07-17T15:30:22.874Z,31.66
2018-07-17T15:32:53.041Z,31.21
2018-07-17T15:35:22.573Z,30.94
2018-07-17T15:37:51.330Z,32.69
2018-07-17T15:40:20.119Z,32.52
2018-07-17T15:42:49.199Z,31.30
2018-07-17T15:45:18.752Z,30.92
2018-07-17T15:47:47.511Z,32.19
2018-07-17T15:50:16.608Z,33.10
2018-07-17T15:52:45.398Z,33.15
2018-07-17T15:55:14.205Z,32.98
2018-07-17T15:57:42.936Z,32.86
2018-07-17T16:00:11.794Z,33.80
2018-07-17T16:02:41.118Z,33.88
2018-07-17T16:05:09.860Z,31.68
2018-07-17T16:07:38.618Z,32.54
2018-07-17T16:10:07.467Z,33.18
2018-07-17T16:12:36.847Z,33.67
2018-07-17T16:15:06.491Z,34.66
2018-07-17T16:17:35.854Z,35.75
2018-07-17T16:20:05.207Z,36.00
2018-07-17T16:22:34.336Z,35.16
2018-07-17T16:25:03.077Z,35.06
2018-07-17T16:27:31.790Z,34.92
2018-07-17T16:30:00.882Z,36.01
2018-07-17T16:32:29.720Z,36.79
2018-07-17T16:34:58.518Z,36.44
2018-07-17T16:37:27.250Z,36.67
2018-07-17T16:39:56.007Z,37.00
2018-07-17T16:42:25.636Z,37.39
2018-07-17T16:44:55.066Z,37.74
2018-07-17T16:47:24.276Z,38.68
2018-07-17T16:49:53.714Z,38.19
2018-07-17T16:52:22.842Z,38.66
2018-07-17T16:54:51.848Z,38.80
2018-07-17T16:57:21.100Z,38.85
2018-07-17T16:59:49.877Z,38.56
2018-07-17T17:02:18.625Z,38.65
2018-07-17T17:04:47.609Z,39.75
2018-07-17T17:07:16.755Z,40.50
2018-07-17T17:09:46.403Z,40.62
2018-07-17T17:12:15.491Z,40.14
2018-07-17T17:14:44.328Z,39.43
2018-07-17T17:17:13.294Z,40.32
2018-07-17T17:19:42.360Z,41.24
2018-07-17T17:22:11.418Z,40.63
2018-07-17T17:24:41.166Z,41.09
2018-07-17T17:27:10.707Z,40.91
2018-07-17T17:29:40.077Z,40.97
2018-07-17T17:32:08.802Z,41.37
2018-07-17T17:34:38.189Z,42.23
2018-07-17T17:37:07.146Z,41.92
2018-07-17T17:39:35.945Z,42.06
2018-07-17T17:42:04.686Z,42.53
2018-07-17T17:44:33.399Z,43.23
2018-07-17T17:47:02.524Z,43.17
2018-07-17T17:49:31.945Z,43.34
2018-07-17T17:52:00.669Z,44.06
2018-07-17T17:54:30.046Z,43.79
2018-07-17T17:56:58.763Z,43.50
2018-07-17T17:59:27.854Z,44.26
2018-07-17T18:01:56.896Z,44.30
2018-07-17T18:04:25.652Z,44.93
2018-07-17T18:06:54.674Z,44.22
2018-07-17T18:09:23.535Z,44.91
2018-07-17T18:11:52.671Z,44.33
2018-07-17T18:14:21.941Z,44.90
2018-07-17T18:16:50.719Z,45.43
2018-07-17T18:19:20.128Z,46.19
2018-07-17T18:21:48.964Z,46.35
2018-07-17T18:24:18.000Z,46.13
2018-07-17T18:26:47.371Z,46.74
2018-07-17T18:29:16.143Z,46.51
2018-07-17T18:31:45.605Z,46.13
2018-07-17T18:34:14.431Z,45.65
2018-07-17T18:36:43.174Z,45.61
2018-07-17T18:39:12.307Z,45.46
2018-07-17T18:41:41.193Z,46.04
2018-07-17T18:44:10.654Z,46.32
2018-07-17T18:46:39.445Z,46.29
2018-07-17T18:49:08.486Z,46.47
2018-07-17T18:51:37.830Z,44.64
2018-07-17T18:54:06.612Z,45.01
2018-07-17T18:56:35.728Z,44.86
2018-07-17T18:59:04.801Z,45.30
2018-07-17T19:01:33.555Z,44.81
2018-07-17T19:04:02.962Z,45.37
2018-07-17T19:06:31.980Z,46.24
2018-07-17T19:09:00.712Z,46.60
2018-07-17T19:11:29.954Z,46.87
2018-07-17T19:13:59.238Z,47.21
2018-07-17T19:16:27.947Z,46.87
2018-07-17T19:18:56.679Z,47.27
2018-07-17T19:21:25.800Z,48.04
2018-07-17T19:23:54.611Z,47.74
2018-07-17T19:26:23.953Z,47.61
2018-07-17T19:28:53.164Z,47.64
2018-07-17T19:31:24.246Z,47.70
2018-07-17T19:33:56.171Z,47.69
2018-07-17T19:36:25.354Z,48.58
2018-07-17T19:38:54.429Z,48.71
2018-07-17T19:41:23.163Z,49.13
2018-07-17T19:43:52.335Z,48.99
2018-07-17T19:46:21.043Z,49.09
2018-07-17T19:48:49.747Z,49.80
2018-07-17T19:51:18.810Z,49.61
2018-07-17T19:53:47.551Z,50.04
2018-07-17T19:56:16.715Z,50.64
2018-07-17T19:58:45.826Z,51.02
2018-07-17T20:01:15.719Z,50.56
2018-07-17T20:03:44.461Z,50.99
2018-07-17T20:06:13.277Z,51.50
2018-07-17T20:08:42.357Z,51.98
2018-07-17T20:11:11.096Z,51.66
2018-07-17T20:13:40.516Z,51.94
2018-07-17T20:16:09.255Z,53.13
2018-07-17T20:18:37.991Z,53.16
2018-07-17T20:21:07.051Z,54.44
2018-07-17T20:23:36.345Z,54.63
2018-07-17T20:26:05.972Z,56.35
2018-07-17T20:28:35.019Z,57.10
2018-07-17T20:31:03.774Z,57.34
2018-07-17T20:33:32.496Z,58.07
2018-07-17T20:36:01.450Z,58.20
2018-07-17T20:38:30.560Z,58.28
2018-07-17T20:40:59.509Z,58.67
2018-07-17T20:43:28.547Z,58.31
2018-07-17T20:45:57.614Z,58.67
2018-07-17T20:48:27.578Z,58.83
2018-07-17T20:50:56.818Z,59.47
2018-07-17T20:53:25.780Z,60.01
2018-07-17T20:55:54.645Z,60.54
2018-07-17T20:58:23.727Z,60.54
2018-07-17T21:00:52.870Z,60.86
2018-07-17T21:03:21.948Z,60.92
2018-07-17T21:05:50.978Z,61.04
2018-07-17T21:08:20.402Z,60.81
2018-07-17T21:10:49.654Z,60.92
2018-07-17T21:13:18.801Z,61.04
2018-07-17T21:15:47.835Z,61.39
2018-07-17T21:18:17.271Z,61.86
2018-07-17T21:20:46.201Z,61.75
2018-07-17T21:23:15.212Z,61.34
2018-07-17T21:25:44.241Z,61.11
2018-07-17T21:28:13.917Z,61.64
2018-07-17T21:30:43.032Z,61.21
2018-07-17T21:33:11.797Z,61.63
2018-07-17T21:35:41.420Z,61.58
2018-07-17T21:38:10.770Z,60.91
2018-07-17T21:40:40.367Z,60.96
2018-07-17T21:43:09.435Z,60.83
2018-07-17T21:45:39.215Z,61.12
2018-07-17T21:48:08.456Z,60.86
2018-07-17T21:50:37.779Z,61.07
2018-07-17T21:53:06.763Z,61.33
2018-07-17T21:55:36.239Z,61.33
2018-07-17T21:58:05.205Z,61.37
2018-07-17T22:00:34.631Z,62.00
2018-07-17T22:03:08.389Z,61.82
2018-07-17T22:05:37.187Z,62.47
2018-07-17T22:08:06.050Z,62.38
2018-07-17T22:10:34.831Z,62.93
2018-07-17T22:13:03.555Z,62.57
2018-07-17T22:15:32.774Z,62.89
2018-07-17T22:18:01.681Z,63.43
2018-07-17T22:20:31.069Z,63.87
2018-07-17T22:22:59.834Z,63.54
2018-07-17T22:25:28.545Z,63.54
2018-07-17T22:27:58.205Z,64.04
2018-07-17T22:30:27.527Z,64.79
2018-07-17T22:32:58.112Z,64.29
2018-07-17T22:35:28.003Z,64.13
2018-07-17T22:38:02.985Z,64.52
2018-07-17T22:40:36.801Z,65.35
2018-07-17T22:43:06.946Z,65.02
2018-07-17T22:45:36.303Z,65.50
2018-07-17T22:48:05.827Z,65.77
2018-07-17T22:50:35.617Z,66.06
2018-07-17T22:53:04.354Z,66.16
2018-07-17T22:55:33.044Z,66.27
2018-07-17T22:58:01.761Z,67.05
2018-07-17T23:00:30.455Z,67.29
2018-07-17T23:02:59.797Z,66.70
2018-07-17T23:05:29.032Z,67.58
2018-07-17T23:07:58.326Z,67.50
2018-07-17T23:10:27.092Z,68.36
2018-07-17T23:12:56.055Z,68.03
2018-07-17T23:15:24.821Z,68.52
2018-07-17T23:17:53.582Z,68.71
2018-07-17T23:20:22.708Z,68.70
2018-07-17T23:22:59.089Z,69.36
2018-07-17T23:25:29.399Z,69.58
2018-07-17T23:27:59.142Z,69.40
2018-07-17T23:30:28.090Z,69.72
2018-07-17T23:32:57.298Z,70.43
2018-07-17T23:35:26.853Z,71.29
2018-07-17T23:37:56.494Z,71.01
2018-07-17T23:40:25.535Z,71.12
2018-07-17T23:42:55.586Z,70.57
2018-07-17T23:45:24.471Z,70.59
2018-07-17T23:47:53.239Z,70.74
2018-07-17T23:50:22.032Z,71.29
2018-07-17T23:52:51.038Z,71.85
2018-07-17T23:55:19.777Z,71.66
2018-07-17T23:57:49.170Z,72.23
